sensor_id;sensor_type;location;lat;lon;timestamp;temperature;humidity
33109;HTU21D;19481;51.118;6.940;2023-03-16T00:04:30;3.01;57.13
33109;HTU21D;19481;51.118;6.940;2023-03-16T00:09:37;3.01;57.71
33109;HTU21D;19481;51.118;6.940;2023-03-16T00:14:40;3.01;57.25
33109;HTU21D;19481;51.118;6.940;2023-03-16T00:19:45;3.03;57.19
33109;HTU21D;19481;51.118;6.940;2023-03-16T00:24:47;3.01;57.30
33109;HTU21D;19481;51.118;6.940;2023-03-16T00:29:50;3.05;57.12
33109;HTU21D;19481;51.118;6.940;2023-03-16T00:34:56;3.08;58.01
33109;HTU21D;19481;51.118;6.940;2023-03-16T00:39:59;3.08;57.19
33109;HTU21D;19481;51.118;6.940;2023-03-16T00:45:01;3.05;57.49
33109;HTU21D;19481;51.118;6.940;2023-03-16T00:50:04;3.04;57.82
33109;HTU21D;19481;51.118;6.940;2023-03-16T00:55:07;3.04;57.54
33109;HTU21D;19481;51.118;6.940;2023-03-16T01:00:09;3.09;57.61
33109;HTU21D;19481;51.118;6.940;2023-03-16T01:05:16;3.13;58.12
33109;HTU21D;19481;51.118;6.940;2023-03-16T01:10:18;3.16;57.26
33109;HTU21D;19481;51.118;6.940;2023-03-16T01:15:20;3.23;57.55
33109;HTU21D;19481;51.118;6.940;2023-03-16T01:20:23;3.29;57.00
33109;HTU21D;19481;51.118;6.940;2023-03-16T01:25:25;3.32;57.10
33109;HTU21D;19481;51.118;6.940;2023-03-16T01:30:27;3.36;56.93
33109;HTU21D;19481;51.118;6.940;2023-03-16T01:35:30;3.41;57.03
33109;HTU21D;19481;51.118;6.940;2023-03-16T01:40:32;3.48;56.68
33109;HTU21D;19481;51.118;6.940;2023-03-16T01:46:15;3.52;57.42
33109;HTU21D;19481;51.118;6.940;2023-03-16T01:51:22;3.53;56.57
33109;HTU21D;19481;51.118;6.940;2023-03-16T01:56:26;3.59;56.55
33109;HTU21D;19481;51.118;6.940;2023-03-16T02:01:30;3.61;56.42
33109;HTU21D;19481;51.118;6.940;2023-03-16T02:06:34;3.62;56.46
33109;HTU21D;19481;51.118;6.940;2023-03-16T02:11:37;3.63;56.48
33109;HTU21D;19481;51.118;6.940;2023-03-16T02:16:39;3.68;56.45
33109;HTU21D;19481;51.118;6.940;2023-03-16T02:21:50;3.65;56.57
33109;HTU21D;19481;51.118;6.940;2023-03-16T02:26:56;3.62;56.52
33109;HTU21D;19481;51.118;6.940;2023-03-16T02:32:01;3.62;56.50
33109;HTU21D;19481;51.118;6.940;2023-03-16T02:37:05;3.61;56.55
33109;HTU21D;19481;51.118;6.940;2023-03-16T02:42:09;3.60;56.59
33109;HTU21D;19481;51.118;6.940;2023-03-16T02:47:21;3.59;56.60
33109;HTU21D;19481;51.118;6.940;2023-03-16T02:52:24;3.59;56.60
33109;HTU21D;19481;51.118;6.940;2023-03-16T02:57:26;3.59;56.62
33109;HTU21D;19481;51.118;6.940;2023-03-16T03:02:29;3.59;56.70
33109;HTU21D;19481;51.118;6.940;2023-03-16T03:07:31;3.59;56.55
33109;HTU21D;19481;51.118;6.940;2023-03-16T03:12:33;3.61;56.55
33109;HTU21D;19481;51.118;6.940;2023-03-16T03:17:36;3.64;56.42
33109;HTU21D;19481;51.118;6.940;2023-03-16T03:22:38;3.70;56.39
33109;HTU21D;19481;51.118;6.940;2023-03-16T03:27:40;3.73;56.22
33109;HTU21D;19481;51.118;6.940;2023-03-16T03:32:44;3.75;56.22
33109;HTU21D;19481;51.118;6.940;2023-03-16T03:37:46;3.73;56.29
33109;HTU21D;19481;51.118;6.940;2023-03-16T03:42:48;3.68;56.45
33109;HTU21D;19481;51.118;6.940;2023-03-16T03:47:52;3.70;56.37
33109;HTU21D;19481;51.118;6.940;2023-03-16T03:52:54;3.69;56.42
33109;HTU21D;19481;51.118;6.940;2023-03-16T03:57:55;3.71;56.34
33109;HTU21D;19481;51.118;6.940;2023-03-16T04:02:58;3.74;56.23
33109;HTU21D;19481;51.118;6.940;2023-03-16T04:08:00;3.71;56.37
33109;HTU21D;19481;51.118;6.940;2023-03-16T04:13:02;3.72;56.32
33109;HTU21D;19481;51.118;6.940;2023-03-16T04:18:05;3.68;56.37
33109;HTU21D;19481;51.118;6.940;2023-03-16T04:23:06;3.64;56.56
33109;HTU21D;19481;51.118;6.940;2023-03-16T04:28:08;3.65;56.46
33109;HTU21D;19481;51.118;6.940;2023-03-16T04:33:11;3.65;56.58
33109;HTU21D;19481;51.118;6.940;2023-03-16T04:38:14;3.70;56.52
33109;HTU21D;19481;51.118;6.940;2023-03-16T04:43:15;3.63;56.72
33109;HTU21D;19481;51.118;6.940;2023-03-16T04:48:18;3.68;56.45
33109;HTU21D;19481;51.118;6.940;2023-03-16T04:53:20;3.68;56.51
33109;HTU21D;19481;51.118;6.940;2023-03-16T04:58:22;3.70;56.64
33109;HTU21D;19481;51.118;6.940;2023-03-16T05:03:25;3.73;56.55
33109;HTU21D;19481;51.118;6.940;2023-03-16T05:08:27;3.76;56.53
33109;HTU21D;19481;51.118;6.940;2023-03-16T05:13:28;3.77;56.67
33109;HTU21D;19481;51.118;6.940;2023-03-16T05:18:31;3.80;56.64
33109;HTU21D;19481;51.118;6.940;2023-03-16T05:23:33;3.84;56.71
33109;HTU21D;19481;51.118;6.940;2023-03-16T05:28:35;3.82;56.81
33109;HTU21D;19481;51.118;6.940;2023-03-16T05:33:38;3.86;57.11
33109;HTU21D;19481;51.118;6.940;2023-03-16T05:38:39;3.88;56.82
33109;HTU21D;19481;51.118;6.940;2023-03-16T05:43:43;3.92;56.87
33109;HTU21D;19481;51.118;6.940;2023-03-16T05:48:46;3.91;56.87
33109;HTU21D;19481;51.118;6.940;2023-03-16T05:53:47;3.94;56.85
33109;HTU21D;19481;51.118;6.940;2023-03-16T05:58:49;3.99;56.81
33109;HTU21D;19481;51.118;6.940;2023-03-16T06:03:52;4.02;56.66
33109;HTU21D;19481;51.118;6.940;2023-03-16T06:08:54;4.06;56.63
33109;HTU21D;19481;51.118;6.940;2023-03-16T06:13:55;4.13;56.59
33109;HTU21D;19481;51.118;6.940;2023-03-16T06:18:58;4.16;56.58
33109;HTU21D;19481;51.118;6.940;2023-03-16T06:24:00;4.21;56.45
33109;HTU21D;19481;51.118;6.940;2023-03-16T06:29:01;4.30;56.39
33109;HTU21D;19481;51.118;6.940;2023-03-16T06:34:05;4.42;56.11
33109;HTU21D;19481;51.118;6.940;2023-03-16T06:39:07;4.57;55.87
33109;HTU21D;19481;51.118;6.940;2023-03-16T06:44:08;4.65;55.86
33109;HTU21D;19481;51.118;6.940;2023-03-16T06:49:12;4.71;55.90
33109;HTU21D;19481;51.118;6.940;2023-03-16T06:54:13;4.79;55.45
33109;HTU21D;19481;51.118;6.940;2023-03-16T06:59:15;4.87;55.65
33109;HTU21D;19481;51.118;6.940;2023-03-16T07:04:18;4.92;55.53
33109;HTU21D;19481;51.118;6.940;2023-03-16T07:09:20;4.97;55.50
33109;HTU21D;19481;51.118;6.940;2023-03-16T07:14:22;5.04;55.36
33109;HTU21D;19481;51.118;6.940;2023-03-16T07:19:26;5.10;55.21
33109;HTU21D;19481;51.118;6.940;2023-03-16T07:24:28;5.17;55.15
33109;HTU21D;19481;51.118;6.940;2023-03-16T07:29:30;5.30;55.23
33109;HTU21D;19481;51.118;6.940;2023-03-16T07:34:33;5.33;55.11
33109;HTU21D;19481;51.118;6.940;2023-03-16T07:39:34;5.39;55.21
33109;HTU21D;19481;51.118;6.940;2023-03-16T07:44:36;5.53;55.04
33109;HTU21D;19481;51.118;6.940;2023-03-16T07:49:39;5.60;54.79
33109;HTU21D;19481;51.118;6.940;2023-03-16T07:54:41;5.64;54.05
33109;HTU21D;19481;51.118;6.940;2023-03-16T07:59:43;5.78;54.13
33109;HTU21D;19481;51.118;6.940;2023-03-16T08:04:46;5.94;54.51
33109;HTU21D;19481;51.118;6.940;2023-03-16T08:09:47;5.95;54.52
33109;HTU21D;19481;51.118;6.940;2023-03-16T08:14:49;6.02;54.42
33109;HTU21D;19481;51.118;6.940;2023-03-16T08:19:52;6.16;54.28
33109;HTU21D;19481;51.118;6.940;2023-03-16T08:24:53;6.33;53.84
33109;HTU21D;19481;51.118;6.940;2023-03-16T08:29:55;6.59;53.27
33109;HTU21D;19481;51.118;6.940;2023-03-16T08:34:58;6.56;53.33
33109;HTU21D;19481;51.118;6.940;2023-03-16T08:40:00;6.63;52.50
33109;HTU21D;19481;51.118;6.940;2023-03-16T08:45:06;6.68;52.91
33109;HTU21D;19481;51.118;6.940;2023-03-16T08:50:12;6.71;52.98
33109;HTU21D;19481;51.118;6.940;2023-03-16T08:55:14;6.85;53.35
33109;HTU21D;19481;51.118;6.940;2023-03-16T09:00:17;6.99;53.07
33109;HTU21D;19481;51.118;6.940;2023-03-16T09:05:21;7.11;52.77
33109;HTU21D;19481;51.118;6.940;2023-03-16T09:10:24;7.20;52.05
33109;HTU21D;19481;51.118;6.940;2023-03-16T09:15:27;7.16;53.03
33109;HTU21D;19481;51.118;6.940;2023-03-16T09:20:30;7.39;51.61
33109;HTU21D;19481;51.118;6.940;2023-03-16T09:25:32;7.62;51.34
33109;HTU21D;19481;51.118;6.940;2023-03-16T09:30:34;8.17;50.96
33109;HTU21D;19481;51.118;6.940;2023-03-16T09:35:37;8.41;50.03
33109;HTU21D;19481;51.118;6.940;2023-03-16T09:40:39;8.29;49.49
33109;HTU21D;19481;51.118;6.940;2023-03-16T09:45:44;8.24;50.50
33109;HTU21D;19481;51.118;6.940;2023-03-16T09:50:52;8.74;50.60
33109;HTU21D;19481;51.118;6.940;2023-03-16T09:55:59;8.67;49.73
33109;HTU21D;19481;51.118;6.940;2023-03-16T10:01:05;8.86;47.06
33109;HTU21D;19481;51.118;6.940;2023-03-16T10:06:12;8.68;50.88
33109;HTU21D;19481;51.118;6.940;2023-03-16T10:11:23;8.66;48.89
33109;HTU21D;19481;51.118;6.940;2023-03-16T10:16:30;8.74;49.96
33109;HTU21D;19481;51.118;6.940;2023-03-16T10:21:38;8.83;50.05
33109;HTU21D;19481;51.118;6.940;2023-03-16T10:26:42;8.78;50.27
33109;HTU21D;19481;51.118;6.940;2023-03-16T10:31:49;9.16;48.34
33109;HTU21D;19481;51.118;6.940;2023-03-16T10:36:53;9.22;49.17
33109;HTU21D;19481;51.118;6.940;2023-03-16T10:41:57;9.12;49.12
33109;HTU21D;19481;51.118;6.940;2023-03-16T10:47:02;9.33;47.33
33109;HTU21D;19481;51.118;6.940;2023-03-16T10:52:13;9.74;45.60
33109;HTU21D;19481;51.118;6.940;2023-03-16T10:57:23;10.45;45.23
33109;HTU21D;19481;51.118;6.940;2023-03-16T11:02:30;10.81;45.32
33109;HTU21D;19481;51.118;6.940;2023-03-16T11:07:35;11.32;45.36
33109;HTU21D;19481;51.118;6.940;2023-03-16T11:12:37;10.98;47.45
33109;HTU21D;19481;51.118;6.940;2023-03-16T11:17:41;10.55;45.36
33109;HTU21D;19481;51.118;6.940;2023-03-16T11:22:46;10.94;45.37
33109;HTU21D;19481;51.118;6.940;2023-03-16T11:27:52;11.05;42.91
33109;HTU21D;19481;51.118;6.940;2023-03-16T11:32:57;11.70;44.60
33109;HTU21D;19481;51.118;6.940;2023-03-16T11:38:10;12.22;40.97
33109;HTU21D;19481;51.118;6.940;2023-03-16T11:43:24;12.13;39.94
33109;HTU21D;19481;51.118;6.940;2023-03-16T11:48:31;12.73;39.37
33109;HTU21D;19481;51.118;6.940;2023-03-16T11:53:47;12.74;37.05
33109;HTU21D;19481;51.118;6.940;2023-03-16T11:58:57;13.24;41.36
33109;HTU21D;19481;51.118;6.940;2023-03-16T12:04:17;13.26;42.38
33109;HTU21D;19481;51.118;6.940;2023-03-16T12:15:22;13.27;35.37
33109;HTU21D;19481;51.118;6.940;2023-03-16T12:20:29;12.78;39.45
33109;HTU21D;19481;51.118;6.940;2023-03-16T12:25:37;12.35;41.54
33109;HTU21D;19481;51.118;6.940;2023-03-16T12:30:46;12.12;40.47
33109;HTU21D;19481;51.118;6.940;2023-03-16T12:35:55;12.05;41.58
33109;HTU21D;19481;51.118;6.940;2023-03-16T12:41:09;12.06;39.39
33109;HTU21D;19481;51.118;6.940;2023-03-16T12:46:13;12.13;42.07
33109;HTU21D;19481;51.118;6.940;2023-03-16T12:51:17;11.91;42.48
33109;HTU21D;19481;51.118;6.940;2023-03-16T12:56:27;11.84;40.49
33109;HTU21D;19481;51.118;6.940;2023-03-16T13:01:36;12.08;40.00
33109;HTU21D;19481;51.118;6.940;2023-03-16T13:06:42;12.35;40.57
33109;HTU21D;19481;51.118;6.940;2023-03-16T13:11:47;12.26;40.88
33109;HTU21D;19481;51.118;6.940;2023-03-16T13:16:50;12.26;42.37
33109;HTU21D;19481;51.118;6.940;2023-03-16T13:22:02;12.63;39.59
33109;HTU21D;19481;51.118;6.940;2023-03-16T13:27:16;12.48;38.16
33109;HTU21D;19481;51.118;6.940;2023-03-16T13:32:20;12.74;41.65
33109;HTU21D;19481;51.118;6.940;2023-03-16T13:37:23;12.66;40.55
33109;HTU21D;19481;51.118;6.940;2023-03-16T13:42:28;12.67;38.23
33109;HTU21D;19481;51.118;6.940;2023-03-16T13:47:32;12.67;40.97
33109;HTU21D;19481;51.118;6.940;2023-03-16T13:52:34;12.78;37.21
33109;HTU21D;19481;51.118;6.940;2023-03-16T13:57:39;12.93;38.67
33109;HTU21D;19481;51.118;6.940;2023-03-16T14:02:42;13.27;38.16
33109;HTU21D;19481;51.118;6.940;2023-03-16T14:07:45;12.99;36.01
33109;HTU21D;19481;51.118;6.940;2023-03-16T14:12:53;13.21;36.56
33109;HTU21D;19481;51.118;6.940;2023-03-16T14:18:11;13.19;35.62
33109;HTU21D;19481;51.118;6.940;2023-03-16T14:23:16;13.33;37.14
33109;HTU21D;19481;51.118;6.940;2023-03-16T14:28:26;13.48;35.88
33109;HTU21D;19481;51.118;6.940;2023-03-16T14:33:30;13.53;37.70
33109;HTU21D;19481;51.118;6.940;2023-03-16T14:38:33;13.18;38.45
33109;HTU21D;19481;51.118;6.940;2023-03-16T14:43:38;13.16;38.72
33109;HTU21D;19481;51.118;6.940;2023-03-16T14:48:40;13.16;39.58
33109;HTU21D;19481;51.118;6.940;2023-03-16T14:53:42;13.46;38.93
33109;HTU21D;19481;51.118;6.940;2023-03-16T14:58:45;13.52;36.80
33109;HTU21D;19481;51.118;6.940;2023-03-16T15:03:46;13.45;39.46
33109;HTU21D;19481;51.118;6.940;2023-03-16T15:08:48;13.40;38.53
33109;HTU21D;19481;51.118;6.940;2023-03-16T15:13:51;13.19;39.80
33109;HTU21D;19481;51.118;6.940;2023-03-16T15:19:03;13.15;38.15
33109;HTU21D;19481;51.118;6.940;2023-03-16T15:24:05;13.06;38.77
33109;HTU21D;19481;51.118;6.940;2023-03-16T15:29:10;13.04;38.45
33109;HTU21D;19481;51.118;6.940;2023-03-16T15:34:12;13.02;38.69
33109;HTU21D;19481;51.118;6.940;2023-03-16T15:39:20;12.93;38.49
33109;HTU21D;19481;51.118;6.940;2023-03-16T15:44:23;12.82;39.30
33109;HTU21D;19481;51.118;6.940;2023-03-16T15:49:25;12.72;39.88
33109;HTU21D;19481;51.118;6.940;2023-03-16T15:54:27;12.73;40.16
33109;HTU21D;19481;51.118;6.940;2023-03-16T15:59:33;12.62;39.94
33109;HTU21D;19481;51.118;6.940;2023-03-16T16:04:37;12.44;40.46
33109;HTU21D;19481;51.118;6.940;2023-03-16T16:09:38;12.32;40.63
33109;HTU21D;19481;51.118;6.940;2023-03-16T16:14:42;12.29;39.97
33109;HTU21D;19481;51.118;6.940;2023-03-16T16:19:43;12.19;41.01
33109;HTU21D;19481;51.118;6.940;2023-03-16T16:24:45;12.12;40.95
33109;HTU21D;19481;51.118;6.940;2023-03-16T16:29:48;12.05;40.59
33109;HTU21D;19481;51.118;6.940;2023-03-16T16:34:50;11.97;41.39
33109;HTU21D;19481;51.118;6.940;2023-03-16T16:39:53;11.91;41.43
33109;HTU21D;19481;51.118;6.940;2023-03-16T16:44:56;11.87;40.67
33109;HTU21D;19481;51.118;6.940;2023-03-16T16:49:58;11.77;41.16
33109;HTU21D;19481;51.118;6.940;2023-03-16T16:55:00;11.75;41.58
33109;HTU21D;19481;51.118;6.940;2023-03-16T17:00:04;11.71;41.99
33109;HTU21D;19481;51.118;6.940;2023-03-16T17:05:14;11.68;41.51
33109;HTU21D;19481;51.118;6.940;2023-03-16T17:10:18;11.59;42.06
33109;HTU21D;19481;51.118;6.940;2023-03-16T17:15:25;11.53;42.48
33109;HTU21D;19481;51.118;6.940;2023-03-16T17:20:26;11.49;42.73
33109;HTU21D;19481;51.118;6.940;2023-03-16T17:25:29;11.42;42.77
33109;HTU21D;19481;51.118;6.940;2023-03-16T17:30:33;11.34;43.05
33109;HTU21D;19481;51.118;6.940;2023-03-16T17:35:34;11.28;43.36
33109;HTU21D;19481;51.118;6.940;2023-03-16T17:40:36;11.25;43.23
33109;HTU21D;19481;51.118;6.940;2023-03-16T17:45:39;11.16;43.22
33109;HTU21D;19481;51.118;6.940;2023-03-16T17:50:42;11.12;43.62
33109;HTU21D;19481;51.118;6.940;2023-03-16T17:55:45;11.03;43.85
33109;HTU21D;19481;51.118;6.940;2023-03-16T18:00:48;10.96;44.00
33109;HTU21D;19481;51.118;6.940;2023-03-16T18:05:50;10.94;43.94
33109;HTU21D;19481;51.118;6.940;2023-03-16T18:10:54;10.87;44.06
33109;HTU21D;19481;51.118;6.940;2023-03-16T18:15:58;10.78;43.74
33109;HTU21D;19481;51.118;6.940;2023-03-16T18:21:00;10.74;44.36
33109;HTU21D;19481;51.118;6.940;2023-03-16T18:26:02;10.60;44.62
33109;HTU21D;19481;51.118;6.940;2023-03-16T18:31:14;10.54;44.62
33109;HTU21D;19481;51.118;6.940;2023-03-16T18:36:20;10.50;44.77
33109;HTU21D;19481;51.118;6.940;2023-03-16T18:41:23;10.41;44.91
33109;HTU21D;19481;51.118;6.940;2023-03-16T18:46:28;10.45;44.68
33109;HTU21D;19481;51.118;6.940;2023-03-16T18:51:31;10.40;44.77
33109;HTU21D;19481;51.118;6.940;2023-03-16T18:56:32;10.39;44.77
33109;HTU21D;19481;51.118;6.940;2023-03-16T19:01:38;10.36;44.67
33109;HTU21D;19481;51.118;6.940;2023-03-16T19:06:40;10.29;44.96
33109;HTU21D;19481;51.118;6.940;2023-03-16T19:11:43;10.23;45.01
33109;HTU21D;19481;51.118;6.940;2023-03-16T19:16:46;10.16;45.05
33109;HTU21D;19481;51.118;6.940;2023-03-16T19:21:49;10.10;44.77
33109;HTU21D;19481;51.118;6.940;2023-03-16T19:26:52;10.07;45.32
33109;HTU21D;19481;51.118;6.940;2023-03-16T19:31:56;10.03;45.16
33109;HTU21D;19481;51.118;6.940;2023-03-16T19:36:58;10.03;45.30
33109;HTU21D;19481;51.118;6.940;2023-03-16T19:42:00;9.95;45.50
33109;HTU21D;19481;51.118;6.940;2023-03-16T19:47:04;9.94;45.52
33109;HTU21D;19481;51.118;6.940;2023-03-16T19:52:09;9.89;45.54
33109;HTU21D;19481;51.118;6.940;2023-03-16T19:57:13;9.85;45.67
33109;HTU21D;19481;51.118;6.940;2023-03-16T20:02:23;9.84;45.62
33109;HTU21D;19481;51.118;6.940;2023-03-16T20:07:25;9.80;45.93
33109;HTU21D;19481;51.118;6.940;2023-03-16T20:12:27;9.71;46.13
33109;HTU21D;19481;51.118;6.940;2023-03-16T20:17:32;9.69;46.20
33109;HTU21D;19481;51.118;6.940;2023-03-16T20:22:34;9.66;46.28
33109;HTU21D;19481;51.118;6.940;2023-03-16T20:27:36;9.70;46.12
33109;HTU21D;19481;51.118;6.940;2023-03-16T20:32:39;9.61;46.55
33109;HTU21D;19481;51.118;6.940;2023-03-16T20:37:42;9.56;46.60
33109;HTU21D;19481;51.118;6.940;2023-03-16T20:42:44;9.59;46.52
33109;HTU21D;19481;51.118;6.940;2023-03-16T20:47:48;9.57;46.57
33109;HTU21D;19481;51.118;6.940;2023-03-16T20:52:50;9.54;46.70
33109;HTU21D;19481;51.118;6.940;2023-03-16T20:57:52;9.59;46.68
33109;HTU21D;19481;51.118;6.940;2023-03-16T21:02:56;9.55;46.74
33109;HTU21D;19481;51.118;6.940;2023-03-16T21:07:57;9.60;46.58
33109;HTU21D;19481;51.118;6.940;2023-03-16T21:12:59;9.53;46.83
33109;HTU21D;19481;51.118;6.940;2023-03-16T21:18:04;9.52;46.83
33109;HTU21D;19481;51.118;6.940;2023-03-16T21:23:13;9.56;46.64
33109;HTU21D;19481;51.118;6.940;2023-03-16T21:28:16;9.50;46.87
33109;HTU21D;19481;51.118;6.940;2023-03-16T21:33:23;9.50;46.87
33109;HTU21D;19481;51.118;6.940;2023-03-16T21:38:29;9.48;46.75
33109;HTU21D;19481;51.118;6.940;2023-03-16T21:43:31;9.37;47.17
33109;HTU21D;19481;51.118;6.940;2023-03-16T21:48:36;9.42;46.83
33109;HTU21D;19481;51.118;6.940;2023-03-16T21:53:38;9.36;47.05
33109;HTU21D;19481;51.118;6.940;2023-03-16T21:58:40;9.38;46.96
33109;HTU21D;19481;51.118;6.940;2023-03-16T22:03:43;9.40;46.44
33109;HTU21D;19481;51.118;6.940;2023-03-16T22:08:45;9.44;46.62
33109;HTU21D;19481;51.118;6.940;2023-03-16T22:13:49;9.47;46.28
33109;HTU21D;19481;51.118;6.940;2023-03-16T22:18:54;9.38;46.22
33109;HTU21D;19481;51.118;6.940;2023-03-16T22:23:57;9.41;46.33
33109;HTU21D;19481;51.118;6.940;2023-03-16T22:29:01;9.32;46.93
33109;HTU21D;19481;51.118;6.940;2023-03-16T22:34:05;9.32;46.89
33109;HTU21D;19481;51.118;6.940;2023-03-16T22:39:10;9.37;46.60
33109;HTU21D;19481;51.118;6.940;2023-03-16T22:44:17;9.41;46.38
33109;HTU21D;19481;51.118;6.940;2023-03-16T22:49:24;9.39;46.72
33109;HTU21D;19481;51.118;6.940;2023-03-16T22:54:27;9.40;46.78
33109;HTU21D;19481;51.118;6.940;2023-03-16T22:59:29;9.44;46.80
33109;HTU21D;19481;51.118;6.940;2023-03-16T23:04:32;9.42;46.94
33109;HTU21D;19481;51.118;6.940;2023-03-16T23:09:34;9.46;46.84
33109;HTU21D;19481;51.118;6.940;2023-03-16T23:14:36;9.42;46.99
33109;HTU21D;19481;51.118;6.940;2023-03-16T23:19:39;9.49;46.75
33109;HTU21D;19481;51.118;6.940;2023-03-16T23:24:40;9.49;46.72
33109;HTU21D;19481;51.118;6.940;2023-03-16T23:29:42;9.53;46.73
33109;HTU21D;19481;51.118;6.940;2023-03-16T23:34:45;9.53;46.80
33109;HTU21D;19481;51.118;6.940;2023-03-16T23:39:47;9.55;46.95
33109;HTU21D;19481;51.118;6.940;2023-03-16T23:44:48;9.53;46.90
33109;HTU21D;19481;51.118;6.940;2023-03-16T23:49:52;9.54;47.00
33109;HTU21D;19481;51.118;6.940;2023-03-16T23:54:54;9.62;46.89
33109;HTU21D;19481;51.118;6.940;2023-03-16T23:59:56;9.61;47.07
